Time;durP1;ratioP1;P1;durP2;ratioP2;P2;SDS_P1;SDS_P2;PMS_P1;PMS_P2;Temp;Humidity;BMP_temperature;BMP_pressure;BME280_temperature;BME280_humidity;BME280_pressure;Samples;Min_cycle;Max_cycle;Signal;HPM_P1;HPM_P2
2024/02/10 00:00:22;;;;;;;16.00;11.10;;;;;;;;;;5047255;28;20075;-80
2024/02/10 00:02:51;;;;;;;15.70;11.63;;;;;;;;;;5046796;28;20053;-80
2024/02/10 00:05:21;;;;;;;17.45;12.65;;;;;;;;;;5046672;28;20099;-80
2024/02/10 00:07:55;;;;;;;17.60;13.32;;;;;;;;;;5053101;28;20053;-80
2024/02/10 00:10:27;;;;;;;20.15;12.45;;;;;;;;;;5063221;28;20049;-80
2024/02/10 00:12:57;;;;;;;17.92;12.65;;;;;;;;;;5064090;28;20045;-80
2024/02/10 00:15:29;;;;;;;17.52;12.43;;;;;;;;;;5046574;28;20491;-80
2024/02/10 00:17:59;;;;;;;19.20;13.07;;;;;;;;;;5045614;28;20049;-80
2024/02/10 00:20:28;;;;;;;20.75;12.65;;;;;;;;;;5058569;28;20049;-80
2024/02/10 00:22:56;;;;;;;21.17;12.32;;;;;;;;;;5061050;28;20100;-80
2024/02/10 00:25:24;;;;;;;16.23;11.18;;;;;;;;;;5062359;28;20414;-80
2024/02/10 00:27:53;;;;;;;19.25;11.85;;;;;;;;;;5062210;28;20095;-80
2024/02/10 00:30:23;;;;;;;17.35;11.95;;;;;;;;;;5062189;28;20083;-80
2024/02/10 00:32:51;;;;;;;12.38;10.65;;;;;;;;;;5061831;28;20049;-80
2024/02/10 00:35:24;;;;;;;15.40;11.13;;;;;;;;;;5046224;28;20553;-80
2024/02/10 00:37:57;;;;;;;16.95;11.73;;;;;;;;;;5053095;28;20053;-80
2024/02/10 00:40:29;;;;;;;17.30;12.63;;;;;;;;;;5045397;28;20163;-80
2024/02/10 00:43:00;;;;;;;16.45;12.20;;;;;;;;;;5062238;28;20053;-80
2024/02/10 00:45:28;;;;;;;17.70;12.48;;;;;;;;;;5062193;28;20084;-80
2024/02/10 00:48:00;;;;;;;19.70;12.02;;;;;;;;;;5046244;28;20084;-80
2024/02/10 00:50:29;;;;;;;17.70;12.25;;;;;;;;;;5053700;28;20049;-80
2024/02/10 00:52:57;;;;;;;16.80;12.00;;;;;;;;;;5061875;28;20045;-79
2024/02/10 00:55:29;;;;;;;17.92;12.20;;;;;;;;;;5048951;28;20057;-79
2024/02/10 00:58:04;;;;;;;18.45;13.18;;;;;;;;;;5065239;28;20541;-80
2024/02/10 01:00:32;;;;;;;18.10;13.32;;;;;;;;;;5047780;28;20149;-80
2024/02/10 01:03:00;;;;;;;16.45;11.88;;;;;;;;;;5070797;28;20079;-80
2024/02/10 01:05:31;;;;;;;16.25;12.23;;;;;;;;;;5046113;28;20044;-80
2024/02/10 01:07:59;;;;;;;18.90;13.82;;;;;;;;;;5062548;28;20049;-79
2024/02/10 01:10:30;;;;;;;18.98;13.20;;;;;;;;;;5062628;28;20133;-79
2024/02/10 01:13:03;;;;;;;18.35;13.68;;;;;;;;;;5046839;28;20051;-79
2024/02/10 01:15:34;;;;;;;18.38;12.88;;;;;;;;;;5047470;28;20108;-79
2024/02/10 01:18:02;;;;;;;21.17;12.80;;;;;;;;;;5045984;28;20053;-80
2024/02/10 01:20:31;;;;;;;17.70;14.05;;;;;;;;;;5045840;28;20079;-80
2024/02/10 01:22:59;;;;;;;18.90;13.07;;;;;;;;;;5045242;28;20053;-79
2024/02/10 01:25:30;;;;;;;17.67;13.50;;;;;;;;;;5061975;28;20053;-80
2024/02/10 01:27:58;;;;;;;16.35;12.88;;;;;;;;;;5046462;28;20415;-79
2024/02/10 01:30:26;;;;;;;16.75;12.35;;;;;;;;;;5062556;28;20083;-80
2024/02/10 01:32:57;;;;;;;19.80;12.98;;;;;;;;;;5045487;28;20052;-80
2024/02/10 01:35:26;;;;;;;17.98;13.65;;;;;;;;;;5046795;28;20056;-80
2024/02/10 01:37:55;;;;;;;17.55;13.25;;;;;;;;;;5045626;28;20529;-81
2024/02/10 01:40:23;;;;;;;18.67;13.15;;;;;;;;;;5046044;28;20112;-80
2024/02/10 01:42:51;;;;;;;17.67;12.85;;;;;;;;;;5046286;28;20495;-80
2024/02/10 01:45:19;;;;;;;15.90;12.98;;;;;;;;;;5044284;28;20084;-81
2024/02/10 01:47:47;;;;;;;19.27;13.15;;;;;;;;;;5060515;28;20507;-80
2024/02/10 01:50:14;;;;;;;19.58;13.52;;;;;;;;;;5044918;28;20049;-80
2024/02/10 01:52:43;;;;;;;17.52;13.65;;;;;;;;;;5044222;28;20096;-79
2024/02/10 01:55:11;;;;;;;18.60;13.10;;;;;;;;;;5044429;28;20061;-80
2024/02/10 01:57:39;;;;;;;17.33;13.07;;;;;;;;;;5044912;28;20057;-80
2024/02/10 02:00:13;;;;;;;20.13;14.07;;;;;;;;;;5062162;28;20079;-80
2024/02/10 02:02:41;;;;;;;17.63;13.30;;;;;;;;;;5061684;28;20110;-80
2024/02/10 02:05:09;;;;;;;21.13;13.73;;;;;;;;;;5046040;28;20106;-80
2024/02/10 02:07:38;;;;;;;20.63;15.05;;;;;;;;;;5061956;28;20056;-80
2024/02/10 02:10:08;;;;;;;23.08;14.73;;;;;;;;;;5045743;28;20119;-80
2024/02/10 02:12:49;;;;;;;21.13;15.93;;;;;;;;;;5045925;28;20049;-80
2024/02/10 02:15:17;;;;;;;20.55;15.20;;;;;;;;;;5045044;28;20057;-80
2024/02/10 02:17:45;;;;;;;21.17;16.30;;;;;;;;;;5060922;28;20103;-80
2024/02/10 02:20:13;;;;;;;23.58;17.15;;;;;;;;;;5044334;28;20049;-80
2024/02/10 02:22:44;;;;;;;22.67;15.68;;;;;;;;;;5043735;28;20111;-80
2024/02/10 02:25:12;;;;;;;19.33;14.40;;;;;;;;;;5043490;28;20049;-80
2024/02/10 02:27:40;;;;;;;21.25;13.57;;;;;;;;;;5042717;28;20518;-80
2024/02/10 02:30:08;;;;;;;22.05;14.63;;;;;;;;;;5043211;28;20399;-80
2024/02/10 02:32:39;;;;;;;22.02;14.07;;;;;;;;;;5051567;28;20410;-79
2024/02/10 02:35:10;;;;;;;21.80;14.38;;;;;;;;;;5043475;28;20083;-80
2024/02/10 02:37:43;;;;;;;24.48;14.57;;;;;;;;;;5043446;28;20129;-80
2024/02/10 02:40:12;;;;;;;23.80;13.45;;;;;;;;;;5058711;28;20118;-80
2024/02/10 02:42:40;;;;;;;21.85;13.95;;;;;;;;;;5068165;28;20053;-80
2024/02/10 02:45:10;;;;;;;27.17;14.43;;;;;;;;;;5059871;28;20061;-80
2024/02/10 02:47:38;;;;;;;27.33;14.55;;;;;;;;;;5062184;28;20089;-80
2024/02/10 02:50:08;;;;;;;22.38;13.30;;;;;;;;;;5047174;28;20107;-80
2024/02/10 02:52:37;;;;;;;24.50;13.65;;;;;;;;;;5050880;28;20465;-80
2024/02/10 02:55:08;;;;;;;29.52;12.40;;;;;;;;;;5046126;28;20130;-80
2024/02/10 02:57:36;;;;;;;61.83;12.45;;;;;;;;;;5046229;28;20514;-80
2024/02/10 03:00:04;;;;;;;50.97;12.75;;;;;;;;;;5055450;28;20049;-80
2024/02/10 03:02:34;;;;;;;70.38;13.00;;;;;;;;;;5050089;28;20614;-80
2024/02/10 03:05:04;;;;;;;20.08;12.10;;;;;;;;;;5054436;28;20080;-80
2024/02/10 03:07:32;;;;;;;25.73;12.35;;;;;;;;;;5050379;28;20055;-80
2024/02/10 03:10:00;;;;;;;25.40;12.13;;;;;;;;;;5046941;28;20053;-80
2024/02/10 03:12:27;;;;;;;21.88;13.07;;;;;;;;;;5063422;28;20457;-80
2024/02/10 03:14:59;;;;;;;21.55;12.18;;;;;;;;;;5047480;28;20073;-80
2024/02/10 03:17:30;;;;;;;23.42;13.07;;;;;;;;;;5047397;28;20127;-80
2024/02/10 03:19:58;;;;;;;22.13;12.93;;;;;;;;;;5047387;28;20053;-80
2024/02/10 03:22:26;;;;;;;22.48;14.07;;;;;;;;;;5046776;28;20057;-80
2024/02/10 03:24:54;;;;;;;24.63;14.18;;;;;;;;;;5063528;28;20052;-80
2024/02/10 03:27:26;;;;;;;20.58;13.05;;;;;;;;;;5046923;28;20413;-80
2024/02/10 03:29:56;;;;;;;24.42;14.43;;;;;;;;;;5054527;28;20057;-80
2024/02/10 03:32:24;;;;;;;27.83;14.77;;;;;;;;;;5063219;28;20044;-80
2024/02/10 03:34:52;;;;;;;25.85;13.93;;;;;;;;;;5063772;28;20061;-80
2024/02/10 03:37:22;;;;;;;25.30;14.98;;;;;;;;;;5064496;28;20099;-80
2024/02/10 03:39:50;;;;;;;30.63;14.25;;;;;;;;;;5047913;28;20481;-81
2024/02/10 03:42:18;;;;;;;25.55;14.65;;;;;;;;;;5048309;28;20053;-80
2024/02/10 03:44:46;;;;;;;28.63;14.15;;;;;;;;;;5047424;28;20109;-80
2024/02/10 03:47:16;;;;;;;22.30;13.48;;;;;;;;;;5063865;28;20047;-80
2024/02/10 03:49:46;;;;;;;25.73;13.98;;;;;;;;;;5048070;28;20073;-81
2024/02/10 03:52:18;;;;;;;25.55;13.82;;;;;;;;;;5063298;28;20098;-80
2024/02/10 03:54:51;;;;;;;27.02;14.60;;;;;;;;;;5066807;28;20041;-80
2024/02/10 03:57:22;;;;;;;25.65;12.88;;;;;;;;;;5061643;28;20045;-80
2024/02/10 03:59:50;;;;;;;27.35;13.77;;;;;;;;;;5067631;28;20064;-80
2024/02/10 04:02:18;;;;;;;28.52;14.40;;;;;;;;;;5046777;28;20063;-80
2024/02/10 04:04:46;;;;;;;32.45;15.70;;;;;;;;;;5046300;28;20084;-80
2024/02/10 04:07:16;;;;;;;26.92;14.15;;;;;;;;;;5047348;28;20053;-80
2024/02/10 04:09:45;;;;;;;28.27;14.52;;;;;;;;;;5063141;28;20422;-80
2024/02/10 04:12:13;;;;;;;27.40;14.10;;;;;;;;;;5063682;28;20084;-80
2024/02/10 04:14:44;;;;;;;25.40;13.48;;;;;;;;;;5062934;28;20083;-80
2024/02/10 04:17:12;;;;;;;25.70;12.07;;;;;;;;;;5063249;28;20059;-80
2024/02/10 04:19:39;;;;;;;22.33;12.45;;;;;;;;;;5045980;28;20110;-80
2024/02/10 04:22:09;;;;;;;24.85;12.93;;;;;;;;;;5047108;28;20057;-80
2024/02/10 04:24:36;;;;;;;23.42;12.20;;;;;;;;;;5045707;28;20080;-81
2024/02/10 04:27:06;;;;;;;28.70;14.48;;;;;;;;;;5062524;28;20128;-80
2024/02/10 04:29:35;;;;;;;23.00;13.50;;;;;;;;;;5046145;28;20111;-81
2024/02/10 04:32:04;;;;;;;26.73;13.38;;;;;;;;;;5062751;28;20084;-80
2024/02/10 04:34:31;;;;;;;24.40;12.95;;;;;;;;;;5062682;28;20052;-80
2024/02/10 04:36:59;;;;;;;26.10;12.95;;;;;;;;;;5062602;28;20057;-80
2024/02/10 04:39:27;;;;;;;20.55;12.90;;;;;;;;;;5062608;28;20489;-80
2024/02/10 04:41:55;;;;;;;26.17;13.13;;;;;;;;;;5062746;28;20056;-80
2024/02/10 04:44:23;;;;;;;20.17;11.95;;;;;;;;;;5062471;28;20108;-80
2024/02/10 04:46:51;;;;;;;24.00;12.07;;;;;;;;;;5077764;28;20048;-80
2024/02/10 04:49:19;;;;;;;28.35;14.95;;;;;;;;;;5057990;28;20053;-80
2024/02/10 04:51:47;;;;;;;23.75;13.57;;;;;;;;;;5043712;28;20073;-80
2024/02/10 04:54:15;;;;;;;23.60;13.85;;;;;;;;;;5044672;28;20360;-80
2024/02/10 04:56:43;;;;;;;29.48;14.93;;;;;;;;;;5044575;28;20052;-80
2024/02/10 04:59:18;;;;;;;23.50;13.10;;;;;;;;;;5044570;28;20053;-80
2024/02/10 05:01:46;;;;;;;27.75;13.77;;;;;;;;;;5044823;28;20068;-80
2024/02/10 05:04:14;;;;;;;27.75;14.15;;;;;;;;;;5043886;28;20131;-80
2024/02/10 05:06:44;;;;;;;29.45;14.45;;;;;;;;;;5044271;28;20057;-80
2024/02/10 05:09:13;;;;;;;28.88;13.52;;;;;;;;;;5044591;28;20052;-80
2024/02/10 05:11:41;;;;;;;31.60;14.73;;;;;;;;;;5044425;28;20045;-80
2024/02/10 05:14:09;;;;;;;26.75;15.05;;;;;;;;;;5044162;28;20407;-80
2024/02/10 05:16:37;;;;;;;27.20;13.20;;;;;;;;;;5043668;28;20057;-80
2024/02/10 05:19:05;;;;;;;28.00;13.75;;;;;;;;;;5044017;28;20102;-80
2024/02/10 05:21:35;;;;;;;28.73;14.80;;;;;;;;;;5044116;28;20114;-80
2024/02/10 05:24:12;;;;;;;30.23;14.57;;;;;;;;;;5060029;28;20061;-80
2024/02/10 05:26:42;;;;;;;30.40;15.20;;;;;;;;;;5044684;28;20498;-80
2024/02/10 05:29:14;;;;;;;33.88;15.80;;;;;;;;;;5060237;28;20049;-80
2024/02/10 05:31:42;;;;;;;36.77;16.30;;;;;;;;;;5044710;28;20522;-80
2024/02/10 05:34:18;;;;;;;32.50;16.40;;;;;;;;;;5060513;28;20055;-80
2024/02/10 05:36:47;;;;;;;30.50;15.23;;;;;;;;;;5044596;28;20090;-81
2024/02/10 05:39:18;;;;;;;33.45;15.90;;;;;;;;;;5060014;28;20061;-80
2024/02/10 05:41:48;;;;;;;32.60;16.13;;;;;;;;;;5044563;28;20113;-80
2024/02/10 05:44:16;;;;;;;35.65;16.95;;;;;;;;;;5044510;28;20055;-80
2024/02/10 05:46:44;;;;;;;31.23;16.35;;;;;;;;;;5044195;28;20053;-80
2024/02/10 05:49:20;;;;;;;32.08;15.30;;;;;;;;;;5044813;28;20044;-80
2024/02/10 05:51:48;;;;;;;30.13;15.27;;;;;;;;;;5053025;28;20044;-81
2024/02/10 05:54:16;;;;;;;30.23;14.80;;;;;;;;;;5052140;28;20057;-80
2024/02/10 05:56:44;;;;;;;28.42;14.32;;;;;;;;;;5043303;28;20053;-80
2024/02/10 05:59:12;;;;;;;30.50;14.95;;;;;;;;;;5044657;28;20056;-80
2024/02/10 06:01:40;;;;;;;29.45;15.25;;;;;;;;;;5060005;28;20052;-80
2024/02/10 06:04:09;;;;;;;30.35;15.52;;;;;;;;;;5044391;28;20061;-80
2024/02/10 06:06:40;;;;;;;30.48;15.18;;;;;;;;;;5044415;28;20068;-80
2024/02/10 06:09:10;;;;;;;;;;;;;;;;;;5045358;28;20059;-80
2024/02/10 06:11:37;;;;;;;32.60;15.93;;;;;;;;;;5060473;28;19921;-80
2024/02/10 06:14:08;;;;;;;35.03;16.67;;;;;;;;;;5044771;28;20136;-81
2024/02/10 06:16:40;;;;;;;33.35;15.73;;;;;;;;;;5044848;28;20113;-80
2024/02/10 06:19:08;;;;;;;33.30;14.45;;;;;;;;;;5046145;28;20079;-80
2024/02/10 06:21:45;;;;;;;35.15;16.90;;;;;;;;;;5062894;28;20048;-80
2024/02/10 06:24:16;;;;;;;30.75;16.15;;;;;;;;;;5049153;28;20095;-80
2024/02/10 06:26:44;;;;;;;37.42;16.88;;;;;;;;;;5049227;28;20103;-80
2024/02/10 06:29:15;;;;;;;32.17;16.45;;;;;;;;;;5048688;28;20048;-80
2024/02/10 06:31:46;;;;;;;38.00;17.15;;;;;;;;;;5049252;28;20091;-81
2024/02/10 06:34:16;;;;;;;40.05;17.13;;;;;;;;;;5064375;28;20135;-80
2024/02/10 06:36:47;;;;;;;35.67;16.58;;;;;;;;;;5048008;28;20076;-80
2024/02/10 06:39:20;;;;;;;36.75;17.65;;;;;;;;;;5065506;28;20418;-80
2024/02/10 06:41:53;;;;;;;35.65;16.95;;;;;;;;;;5063707;28;20056;-80
2024/02/10 06:44:21;;;;;;;39.17;17.20;;;;;;;;;;5047179;28;20087;-80
2024/02/10 06:46:48;;;;;;;49.00;20.05;;;;;;;;;;5062556;28;20415;-80
2024/02/10 06:49:20;;;;;;;37.90;16.67;;;;;;;;;;5045285;28;20098;-80
2024/02/10 06:51:53;;;;;;;42.80;17.27;;;;;;;;;;5060121;28;20094;-80
2024/02/10 06:54:21;;;;;;;36.10;16.52;;;;;;;;;;5062935;28;20045;-80
2024/02/10 06:56:58;;;;;;;31.55;14.15;;;;;;;;;;5071517;28;20087;-79
2024/02/10 06:59:29;;;;;;;32.55;16.17;;;;;;;;;;5073344;28;20055;-80
2024/02/10 07:01:56;;;;;;;71.25;15.07;;;;;;;;;;5056776;28;20049;-80
2024/02/10 07:04:25;;;;;;;36.15;14.52;;;;;;;;;;5073578;28;20100;-78
2024/02/10 07:06:57;;;;;;;76.07;15.57;;;;;;;;;;5065308;28;20102;-80
2024/02/10 07:09:29;;;;;;;34.58;15.10;;;;;;;;;;5073260;28;20061;-80
2024/02/10 07:11:59;;;;;;;38.70;15.90;;;;;;;;;;5065299;28;20045;-80
2024/02/10 07:14:33;;;;;;;30.77;16.02;;;;;;;;;;5065935;28;20053;-80
2024/02/10 07:17:01;;;;;;;49.28;17.17;;;;;;;;;;5049252;28;20110;-80
2024/02/10 07:19:35;;;;;;;49.83;16.67;;;;;;;;;;5073340;28;20060;-80
2024/02/10 07:22:02;;;;;;;41.20;16.85;;;;;;;;;;5048997;28;20076;-81
2024/02/10 07:24:33;;;;;;;92.15;19.88;;;;;;;;;;5056802;28;20059;-81
2024/02/10 07:27:00;;;;;;;60.00;18.58;;;;;;;;;;5047948;28;20052;-81
2024/02/10 07:29:28;;;;;;;59.63;18.67;;;;;;;;;;5065473;28;20458;-80
2024/02/10 07:31:56;;;;;;;67.40;19.33;;;;;;;;;;5048291;28;20048;-80
2024/02/10 07:34:29;;;;;;;44.33;18.30;;;;;;;;;;5064685;28;20175;-80
2024/02/10 07:36:59;;;;;;;82.72;19.42;;;;;;;;;;5065214;28;20115;-80
2024/02/10 07:39:27;;;;;;;80.57;18.45;;;;;;;;;;5049326;28;20114;-81
2024/02/10 07:41:59;;;;;;;129.38;19.02;;;;;;;;;;5065580;28;20064;-81
2024/02/10 07:44:27;;;;;;;192.95;21.63;;;;;;;;;;5049132;28;20087;-81
2024/02/10 07:46:55;;;;;;;56.38;17.30;;;;;;;;;;5063998;28;20465;-80
2024/02/10 07:49:22;;;;;;;133.35;19.67;;;;;;;;;;5062613;28;20049;-80
2024/02/10 07:51:50;;;;;;;59.05;17.15;;;;;;;;;;5047468;28;20049;-80
2024/02/10 07:54:25;;;;;;;52.08;16.73;;;;;;;;;;5047046;28;20049;-80
2024/02/10 07:56:55;;;;;;;46.13;17.63;;;;;;;;;;5046923;28;20087;-80
2024/02/10 07:59:26;;;;;;;45.33;17.88;;;;;;;;;;5062734;28;20059;-80
2024/02/10 08:01:56;;;;;;;46.05;18.55;;;;;;;;;;5046266;28;20071;-80
2024/02/10 08:04:24;;;;;;;40.78;17.10;;;;;;;;;;5063368;28;20112;-80
2024/02/10 08:06:55;;;;;;;45.13;18.98;;;;;;;;;;5045683;28;20215;-80
2024/02/10 08:09:23;;;;;;;42.05;18.08;;;;;;;;;;5047021;28;20063;-80
2024/02/10 08:12:08;;;;;;;41.45;18.15;;;;;;;;;;5049558;28;20053;-80
2024/02/10 08:14:42;;;;;;;39.17;17.38;;;;;;;;;;5064671;28;20053;-80
2024/02/10 08:17:12;;;;;;;35.20;17.02;;;;;;;;;;5063584;28;20048;-80
2024/02/10 08:19:42;;;;;;;33.25;17.33;;;;;;;;;;5047367;28;20099;-80
2024/02/10 08:22:11;;;;;;;34.13;16.67;;;;;;;;;;5047842;28;20057;-80
2024/02/10 08:24:38;;;;;;;36.42;17.98;;;;;;;;;;5046554;28;20057;-80
2024/02/10 08:27:09;;;;;;;34.90;16.92;;;;;;;;;;5048192;28;20048;-80
2024/02/10 08:29:39;;;;;;;31.52;16.17;;;;;;;;;;5050818;28;20064;-80
2024/02/10 08:32:08;;;;;;;35.28;16.27;;;;;;;;;;5047890;28;20503;-80
2024/02/10 08:34:39;;;;;;;29.27;15.85;;;;;;;;;;5047860;28;20088;-80
2024/02/10 08:37:10;;;;;;;28.13;15.27;;;;;;;;;;5047391;28;20063;-81
2024/02/10 08:39:42;;;;;;;26.95;14.60;;;;;;;;;;5046547;28;20049;-81
2024/02/10 08:42:13;;;;;;;32.70;16.60;;;;;;;;;;5047000;28;20063;-80
2024/02/10 08:44:44;;;;;;;29.58;15.73;;;;;;;;;;5045942;28;20184;-80
2024/02/10 08:47:15;;;;;;;28.45;15.68;;;;;;;;;;5063259;28;20057;-81
2024/02/10 08:49:42;;;;;;;26.77;14.73;;;;;;;;;;5060950;28;20041;-80
2024/02/10 08:52:21;;;;;;;23.33;13.57;;;;;;;;;;5048030;28;20060;-80
2024/02/10 08:54:52;;;;;;;27.92;14.00;;;;;;;;;;5049045;28;20088;-80
2024/02/10 08:57:24;;;;;;;29.08;15.27;;;;;;;;;;5046726;28;20485;-80
2024/02/10 09:00:10;;;;;;;30.58;16.38;;;;;;;;;;5069397;28;20148;-80
2024/02/10 09:02:46;;;;;;;28.33;14.77;;;;;;;;;;5062023;28;20079;-80
2024/02/10 09:05:15;;;;;;;27.63;15.60;;;;;;;;;;5046928;28;20059;-80
2024/02/10 09:07:48;;;;;;;30.55;15.85;;;;;;;;;;5058175;28;20101;-80
2024/02/10 09:10:18;;;;;;;27.45;14.98;;;;;;;;;;5044954;28;20048;-80
2024/02/10 09:12:48;;;;;;;26.77;14.85;;;;;;;;;;5046181;28;20131;-80
2024/02/10 09:15:15;;;;;;;29.98;16.48;;;;;;;;;;5061743;28;20120;-80
2024/02/10 09:17:44;;;;;;;30.13;15.15;;;;;;;;;;5045994;28;20071;-80
2024/02/10 09:20:17;;;;;;;29.75;14.65;;;;;;;;;;5062738;28;20499;-80
2024/02/10 09:22:47;;;;;;;29.67;15.73;;;;;;;;;;5046786;28;20141;-80
2024/02/10 09:25:26;;;;;;;26.23;14.73;;;;;;;;;;5055183;28;20494;-80
2024/02/10 09:28:02;;;;;;;24.10;14.13;;;;;;;;;;5045526;28;20067;-80
2024/02/10 09:30:35;;;;;;;25.80;14.52;;;;;;;;;;5061104;28;20072;-80
2024/02/10 09:33:19;;;;;;;24.40;14.70;;;;;;;;;;5077718;28;20048;-80
2024/02/10 09:35:48;;;;;;;22.80;13.27;;;;;;;;;;5060586;28;20057;-80
2024/02/10 09:38:16;;;;;;;20.50;12.35;;;;;;;;;;5045330;28;20055;-80
2024/02/10 09:40:48;;;;;;;22.88;13.30;;;;;;;;;;5045613;28;20067;-80
2024/02/10 09:43:15;;;;;;;18.95;13.18;;;;;;;;;;5063870;28;20060;-80
2024/02/10 09:45:45;;;;;;;19.98;12.75;;;;;;;;;;5047110;28;20057;-80
2024/02/10 09:48:19;;;;;;;16.90;11.23;;;;;;;;;;5062247;28;20136;-80
2024/02/10 09:50:48;;;;;;;16.77;11.15;;;;;;;;;;5045184;28;20060;-80
2024/02/10 09:53:16;;;;;;;19.63;12.48;;;;;;;;;;5044780;28;20045;-80
2024/02/10 09:55:43;;;;;;;18.00;11.65;;;;;;;;;;5062898;28;20045;-80
2024/02/10 09:58:13;;;;;;;21.25;11.85;;;;;;;;;;5049093;28;20053;-80
2024/02/10 10:00:47;;;;;;;;;;;;;;;;;;5051031;28;20044;-79
2024/02/10 10:03:15;;;;;;;18.25;11.55;;;;;;;;;;5067799;28;19924;-79
2024/02/10 10:05:50;;;;;;;25.85;14.85;;;;;;;;;;5055972;28;20060;-79
2024/02/10 10:08:21;;;;;;;26.83;16.70;;;;;;;;;;5072931;28;20124;-80
2024/02/10 10:10:50;;;;;;;27.00;17.13;;;;;;;;;;5064517;28;20049;-80
2024/02/10 10:13:19;;;;;;;26.45;16.50;;;;;;;;;;5049238;28;20132;-79
2024/02/10 10:15:50;;;;;;;27.95;18.02;;;;;;;;;;5056199;28;20080;-80
2024/02/10 10:18:21;;;;;;;30.48;17.60;;;;;;;;;;5065004;28;20071;-80
2024/02/10 10:21:10;;;;;;;24.23;15.50;;;;;;;;;;5050627;28;20053;-80
2024/02/10 10:23:39;;;;;;;26.25;16.67;;;;;;;;;;5050402;28;20057;-80
2024/02/10 10:26:11;;;;;;;26.33;15.43;;;;;;;;;;5048140;28;20392;-80
2024/02/10 10:28:54;;;;;;;23.60;16.15;;;;;;;;;;5064065;28;20135;-80
2024/02/10 10:31:26;;;;;;;24.67;16.17;;;;;;;;;;5065081;28;20678;-80
2024/02/10 10:33:59;;;;;;;26.73;17.42;;;;;;;;;;5044146;28;20072;-79
2024/02/10 10:36:32;;;;;;;28.77;17.58;;;;;;;;;;5044163;28;20059;-80
2024/02/10 10:38:59;;;;;;;30.63;17.80;;;;;;;;;;5047661;28;20582;-80
2024/02/10 10:41:33;;;;;;;28.50;17.42;;;;;;;;;;5048418;28;20495;-80
2024/02/10 10:44:14;;;;;;;26.80;16.67;;;;;;;;;;5035783;28;20495;-79
2024/02/10 10:46:51;;;;;;;26.00;16.92;;;;;;;;;;5059097;28;20112;-79
2024/02/10 10:49:21;;;;;;;27.48;15.50;;;;;;;;;;5063557;28;20417;-80
2024/02/10 10:52:14;;;;;;;26.63;15.25;;;;;;;;;;5047755;28;20041;-80
2024/02/10 10:54:41;;;;;;;24.02;14.63;;;;;;;;;;5063749;28;20369;-80
2024/02/10 10:57:15;;;;;;;22.98;14.50;;;;;;;;;;5056761;28;20067;-80
2024/02/10 10:59:49;;;;;;;22.70;14.70;;;;;;;;;;5054192;28;20144;-80
2024/02/10 11:02:22;;;;;;;24.10;13.77;;;;;;;;;;5047757;28;20076;-80
2024/02/10 11:05:03;;;;;;;24.73;13.98;;;;;;;;;;5049794;28;20463;-79
2024/02/10 11:07:45;;;;;;;21.92;12.52;;;;;;;;;;5043591;28;20053;-80
2024/02/10 11:10:37;;;;;;;21.60;13.07;;;;;;;;;;5045962;28;20053;-80
2024/02/10 11:13:07;;;;;;;21.92;12.70;;;;;;;;;;5063897;28;20045;-80
2024/02/10 11:15:41;;;;;;;24.38;13.77;;;;;;;;;;5047925;28;20120;-80
2024/02/10 11:18:17;;;;;;;20.10;13.07;;;;;;;;;;5046636;28;20053;-80
2024/02/10 11:20:48;;;;;;;19.63;12.43;;;;;;;;;;5052244;28;20531;-79
2024/02/10 11:23:19;;;;;;;16.65;10.73;;;;;;;;;;5045895;28;20057;-79
2024/02/10 11:25:52;;;;;;;23.70;12.80;;;;;;;;;;5046854;28;20060;-80
2024/02/10 11:28:23;;;;;;;21.42;12.13;;;;;;;;;;5048043;28;20510;-79
2024/02/10 11:30:54;;;;;;;20.00;12.00;;;;;;;;;;5043856;28;20171;-79
2024/02/10 11:33:27;;;;;;;18.60;12.05;;;;;;;;;;5046141;28;20084;-79
2024/02/10 11:36:03;;;;;;;21.25;12.73;;;;;;;;;;5062721;28;20045;-79
2024/02/10 11:38:48;;;;;;;22.60;12.48;;;;;;;;;;5047162;28;20415;-79
2024/02/10 11:41:20;;;;;;;21.88;12.85;;;;;;;;;;5047063;28;20045;-80
2024/02/10 11:43:52;;;;;;;15.25;11.05;;;;;;;;;;5063292;28;20053;-80
2024/02/10 11:46:28;;;;;;;17.02;10.23;;;;;;;;;;5077279;28;20052;-79
2024/02/10 11:49:04;;;;;;;18.33;10.63;;;;;;;;;;5045690;28;20057;-79
2024/02/10 11:51:32;;;;;;;16.45;10.88;;;;;;;;;;5061103;28;20443;-79
2024/02/10 11:54:17;;;;;;;12.30;8.90;;;;;;;;;;5044016;28;20045;-79
2024/02/10 11:56:50;;;;;;;13.02;9.18;;;;;;;;;;5061312;28;20415;-79
2024/02/10 11:59:20;;;;;;;12.43;9.65;;;;;;;;;;5060990;28;20091;-79
2024/02/10 12:01:50;;;;;;;12.60;8.35;;;;;;;;;;5061179;28;20075;-79
2024/02/10 12:04:32;;;;;;;8.68;7.13;;;;;;;;;;5045234;28;20048;-79
2024/02/10 12:07:06;;;;;;;8.30;6.88;;;;;;;;;;5061338;28;20088;-79
2024/02/10 12:09:41;;;;;;;15.63;9.95;;;;;;;;;;5078120;28;20052;-79
2024/02/10 12:12:12;;;;;;;12.90;7.43;;;;;;;;;;5078025;28;20152;-79
2024/02/10 12:14:40;;;;;;;12.70;6.85;;;;;;;;;;5077772;28;20053;-79
2024/02/10 12:17:07;;;;;;;9.18;7.03;;;;;;;;;;5077525;28;20063;-79
2024/02/10 12:19:43;;;;;;;11.05;7.50;;;;;;;;;;5060929;28;20064;-79
2024/02/10 12:22:10;;;;;;;8.27;6.82;;;;;;;;;;5062279;28;20160;-78
2024/02/10 12:24:40;;;;;;;11.65;7.93;;;;;;;;;;5062036;28;20143;-79
2024/02/10 12:27:10;;;;;;;9.82;7.30;;;;;;;;;;5078293;28;20049;-79
2024/02/10 12:29:39;;;;;;;12.00;7.05;;;;;;;;;;5060655;28;20063;-79
2024/02/10 12:32:11;;;;;;;9.77;6.85;;;;;;;;;;5060751;28;20045;-79
2024/02/10 12:34:41;;;;;;;12.52;7.68;;;;;;;;;;5060469;28;20048;-79
2024/02/10 12:37:08;;;;;;;11.43;7.35;;;;;;;;;;5060594;28;20060;-79
2024/02/10 12:39:39;;;;;;;8.13;6.70;;;;;;;;;;5060948;28;20096;-79
2024/02/10 12:42:21;;;;;;;10.48;7.07;;;;;;;;;;5059825;28;20549;-79
2024/02/10 12:44:50;;;;;;;9.57;6.78;;;;;;;;;;5061276;28;20095;-79
2024/02/10 12:47:18;;;;;;;10.77;7.35;;;;;;;;;;5060452;28;20088;-79
2024/02/10 12:49:46;;;;;;;8.98;6.65;;;;;;;;;;5044093;28;20123;-79
2024/02/10 12:52:16;;;;;;;13.70;7.90;;;;;;;;;;5059393;28;20055;-79
2024/02/10 12:54:44;;;;;;;11.05;7.60;;;;;;;;;;5076966;28;20132;-79
2024/02/10 12:57:12;;;;;;;11.60;8.13;;;;;;;;;;5060221;28;20080;-79
2024/02/10 12:59:43;;;;;;;15.63;8.98;;;;;;;;;;5060531;28;20553;-79
2024/02/10 13:02:11;;;;;;;10.68;7.90;;;;;;;;;;5061095;28;20087;-79
2024/02/10 13:04:39;;;;;;;9.93;7.90;;;;;;;;;;5057664;28;20044;-78
2024/02/10 13:07:07;;;;;;;11.05;7.35;;;;;;;;;;5058805;28;20048;-79
2024/02/10 13:09:39;;;;;;;10.27;8.00;;;;;;;;;;5051451;28;20073;-79
2024/02/10 13:12:06;;;;;;;12.57;7.70;;;;;;;;;;5075539;28;20084;-79
2024/02/10 13:14:39;;;;;;;12.40;8.50;;;;;;;;;;5060815;28;20056;-79
2024/02/10 13:17:09;;;;;;;13.55;7.95;;;;;;;;;;5076235;28;20064;-80
2024/02/10 13:19:39;;;;;;;12.80;8.23;;;;;;;;;;5059843;28;20495;-79
2024/02/10 13:22:11;;;;;;;15.40;9.27;;;;;;;;;;5076563;28;20057;-80
2024/02/10 13:24:38;;;;;;;14.97;8.40;;;;;;;;;;5061228;28;20059;-79
2024/02/10 13:27:06;;;;;;;12.23;8.20;;;;;;;;;;5060192;28;20507;-79
2024/02/10 13:29:33;;;;;;;12.63;7.97;;;;;;;;;;5076263;28;20132;-79
2024/02/10 13:32:06;;;;;;;;;;;;;;;;;;5076521;28;20101;-79
2024/02/10 13:34:34;;;;;;;10.40;7.60;;;;;;;;;;5059972;28;19928;-79
2024/02/10 14:05:00;;;;;;;8.88;6.60;;;;;;;;;;5058977;28;20053;-79
2024/02/10 14:13:10;;;;;;;14.38;8.00;;;;;;;;;;5058734;28;19920;-79
2024/02/10 14:15:40;;;;;;;8.77;6.80;;;;;;;;;;5059032;28;20412;-79
2024/02/10 14:18:26;;;;;;;10.48;7.78;;;;;;;;;;5057388;28;20059;-79
2024/02/10 14:21:11;;;;;;;10.13;6.40;;;;;;;;;;5057998;28;20092;-79
2024/02/10 14:23:39;;;;;;;9.32;7.60;;;;;;;;;;5072244;28;20059;-79
2024/02/10 14:26:15;;;;;;;15.02;7.35;;;;;;;;;;5038694;28;20103;-79
2024/02/10 14:28:55;;;;;;;12.00;8.25;;;;;;;;;;5055399;28;20049;-79
2024/02/10 14:31:26;;;;;;;12.73;8.75;;;;;;;;;;5069958;28;20053;-79
2024/02/10 14:33:54;;;;;;;10.52;7.65;;;;;;;;;;5037672;28;20123;-79
2024/02/10 14:36:38;;;;;;;9.07;7.63;;;;;;;;;;5054332;28;20484;-79
2024/02/10 14:39:13;;;;;;;12.80;8.70;;;;;;;;;;5039535;28;20084;-79
2024/02/10 14:41:43;;;;;;;10.50;8.30;;;;;;;;;;5070534;28;20516;-79
2024/02/10 14:44:10;;;;;;;11.50;8.85;;;;;;;;;;5042040;28;20049;-79
2024/02/10 14:46:40;;;;;;;10.88;8.52;;;;;;;;;;5057594;28;20060;-79
2024/02/10 14:49:14;;;;;;;10.25;8.15;;;;;;;;;;5072921;28;20104;-78
2024/02/10 14:51:47;;;;;;;12.20;9.13;;;;;;;;;;5057556;28;20051;-79
2024/02/10 14:54:24;;;;;;;14.90;9.10;;;;;;;;;;5055818;28;20045;-78
2024/02/10 14:56:52;;;;;;;13.13;8.27;;;;;;;;;;5072604;28;20099;-79
2024/02/10 14:59:25;;;;;;;13.13;9.27;;;;;;;;;;5072508;28;20045;-79
2024/02/10 15:01:56;;;;;;;13.02;8.35;;;;;;;;;;5071147;28;20045;-79
2024/02/10 15:04:33;;;;;;;13.38;8.70;;;;;;;;;;5072022;28;20103;-79
2024/02/10 15:07:01;;;;;;;14.98;9.88;;;;;;;;;;5072251;28;20053;-79
2024/02/10 15:09:31;;;;;;;12.93;9.15;;;;;;;;;;5055306;28;20410;-79
2024/02/10 15:12:03;;;;;;;12.32;8.10;;;;;;;;;;5040452;28;20055;-79
2024/02/10 15:14:32;;;;;;;12.25;8.45;;;;;;;;;;5056565;28;20049;-79